Impacts TAF Board
For situational awareness. Not to be used for flight planning purposes.
IDs:

KDTW - Detroit Metro/Wayne, MI, US

Issued at 2130 UTC 18 Nov 2018
Updated at 2222 UTC 18 Nov 2018
Potential Impact None Slight Moderate High
Time2206Z 18/23Z 19/00Z 19/01Z 19/02Z 19/03Z 19/04Z 19/05Z 19/06Z 19/07Z 19/08Z 19/09Z 19/10Z 19/11Z>>
Type OBS PRVL PRVL PRVL PRVL PRVL PRVL PRVL PRVL PRVL PRVL PRVL PRVL PRVL
VIS 8 >6 >6 >6 >6 >6 >6 >6 >6 >6 >6 >6 >6 >6
CIG 30 25 35 35 35 -- -- -- -- -- -- 28 28 28
Cover OVC OVC BKN BKN BKN SCT SCT SCT SCT SCT SCT BKN BKN BKN
FltCat MVFR MVFR VFR VFR VFR VFR VFR VFR VFR VFR VFR MVFR MVFR MVFR
WX -- -- -- -- -- -- -- -- -- -- -- -- -- --
WDir VRB VRB 280 280 280 280 280 280 280 280 280 280 280 280
WSpd 0 0 4 4 4 4 4 4 4 4 4 4 4 4
WGst -- -- -- -- -- -- -- -- -- -- -- -- -- --
Raw TAF
KDTW 182130Z 1822/1924 00000KT P6SM SCT018 OVC025
  FM190000 28004KT P6SM SCT022 BKN035
  FM190300 28004KT P6SM SCT025
  FM190900 28004KT P6SM BKN028
  FM191500 24006KT P6SM SCT035


Raw METAR
KDTW 182206Z 00000KT 8SM OVC030 03/M02 A3017 RMK AO2 T00281017
KDTW 182153Z 00000KT 8SM OVC027 03/M01 A3017 RMK AO2 SLP222 T00281011
KDTW 182053Z 00000KT 8SM OVC020 03/M01 A3017 RMK AO2 SLP221 60000 T00281011 56014
KDTW 182004Z 00000KT 7SM SCT008 OVC018 03/M01 A3016 RMK AO2 T00281011
KDTW 181953Z 00000KT 7SM BKN008 OVC018 02/M01 A3017 RMK AO2 SLP221 T00221011

METAR Board
Radar Display
Forecast Discussion
For situational awareness. Not to be used for flight planning purposes.